aviador You're here:

KIMT Decoded Metar

IRON MOUNTAIN in MI, USA
Report Time2018-07-20 07:54:00
UTC Time2018-07-20 08:56:50
Flight Rules vfr VFR
Wind100° at 07 kt
W.Decomp.*RWY 13: 6.2 kt HW 3.3 kt LCW
RWY 19: 0.2 kt HW 7 kt LCW
W.Rank100° ranks 29
Current wind is above 100° avg. (5.6)
Visibility9999 m
Phenomena:N/A
Clouds:Scattered 047 Hf
Overcast 060 Hf
Expected CloudBase > 1,200 ft AGL from Temp-Dew spread
Ceiling6,000 ft
Temp19°C (ISA +6)
Dew Point16°C (83% RH)
AAT18.5°C
QNH1009 hPa
Density Alt2,260 ft
Elevation1,145 ft
Report Wrong Elevation
Raw Report
KIMT 200754Z AUTO 10007KT 10SM SCT047 OVC060 19/16 A2979 RMK AO2
RAB29E39 SLP081 P0000 T01940161=

Extra information for KIMT:More info

Metar Taf Metar & Taf Last 4 Metars F.Rules Stats Wind Profile Meteogram Temp Stats Airport Information Weather charts Add Link Nearby VenuesMetar ALERT Operation Metar Decoded Social comments

AIRNAV info for KIMT